Weather at Knight Sky Airport

Public forecast

Using degrees Fahrenheit for public forecast. Weather courtesy of forecast.io.

Closest aviation weather report (METAR) to Knight Sky Airport

Closest report is Wausau Downtown Airport, 11.5 nm (21.3 km) WSW. Retrieved 2021/06/20 09:54 UTC (25 minutes ago):

KAUW 200954Z AUTO 02005KT 10SM CLR 14/11 A2973 RMK AO2 SLP066 T01390106

Closest aviation forecast (TAF) to Knight Sky Airport

Closest forecast is Wausau Downtown Airport, 11.5 nm (21.3 km) WSW. Retrieved 2021/06/20 06:22 UTC (4 hours ago):

TAF KAUW 200520Z 2006/2106 13003KT P6SM SCT200 FM201800 16008G15KT P6SM -SHRA OVC040 FM201900 16009G16KT P6SM -SHRA OVC029 FM202000 16009G16KT 5SM SHRA OVC018 TEMPO 2020/2024 3SM -TSRA BKN008CB FM210000 17007G16KT 4SM SHRA OVC005 FM210200 27007G19KT P6SM SHRA OVC003